sensor_id;sensor_type;location;lat;lon;timestamp;P1;durP1;ratioP1;P2;durP2;ratioP2
48241;SDS011;34041;51.812;4.622;2023-04-05T00:02:35;7.97;;;5.53;;
48241;SDS011;34041;51.812;4.622;2023-04-05T00:05:36;6.68;;;4.82;;
48241;SDS011;34041;51.812;4.622;2023-04-05T00:08:36;7.93;;;5.20;;
48241;SDS011;34041;51.812;4.622;2023-04-05T00:11:36;8.20;;;5.50;;
48241;SDS011;34041;51.812;4.622;2023-04-05T00:14:36;5.63;;;4.87;;
48241;SDS011;34041;51.812;4.622;2023-04-05T00:17:36;11.30;;;5.60;;
48241;SDS011;34041;51.812;4.622;2023-04-05T00:20:37;7.97;;;5.43;;
48241;SDS011;34041;51.812;4.622;2023-04-05T00:23:37;6.87;;;4.53;;
48241;SDS011;34041;51.812;4.622;2023-04-05T00:26:38;10.68;;;5.88;;
48241;SDS011;34041;51.812;4.622;2023-04-05T00:29:38;7.33;;;5.90;;
48241;SDS011;34041;51.812;4.622;2023-04-05T00:32:39;7.65;;;5.22;;
48241;SDS011;34041;51.812;4.622;2023-04-05T00:35:39;6.70;;;5.33;;
48241;SDS011;34041;51.812;4.622;2023-04-05T00:38:40;7.93;;;5.93;;
48241;SDS011;34041;51.812;4.622;2023-04-05T00:41:40;8.48;;;5.65;;
48241;SDS011;34041;51.812;4.622;2023-04-05T00:44:40;7.78;;;5.70;;
48241;SDS011;34041;51.812;4.622;2023-04-05T00:47:41;7.37;;;5.53;;
48241;SDS011;34041;51.812;4.622;2023-04-05T00:50:42;8.52;;;6.03;;
48241;SDS011;34041;51.812;4.622;2023-04-05T00:53:42;6.57;;;5.35;;
48241;SDS011;34041;51.812;4.622;2023-04-05T00:56:43;8.88;;;5.78;;
48241;SDS011;34041;51.812;4.622;2023-04-05T00:59:44;7.53;;;5.25;;
48241;SDS011;34041;51.812;4.622;2023-04-05T01:02:47;7.93;;;5.93;;
48241;SDS011;34041;51.812;4.622;2023-04-05T01:05:50;9.05;;;7.00;;
48241;SDS011;34041;51.812;4.622;2023-04-05T01:08:59;7.43;;;6.13;;
48241;SDS011;34041;51.812;4.622;2023-04-05T01:12:02;6.25;;;4.78;;
48241;SDS011;34041;51.812;4.622;2023-04-05T01:15:03;7.60;;;5.88;;
48241;SDS011;34041;51.812;4.622;2023-04-05T01:18:04;12.25;;;6.00;;
48241;SDS011;34041;51.812;4.622;2023-04-05T01:27:21;8.43;;;5.40;;
48241;SDS011;34041;51.812;4.622;2023-04-05T01:30:31;9.15;;;5.90;;
48241;SDS011;34041;51.812;4.622;2023-04-05T01:33:42;8.68;;;6.55;;
48241;SDS011;34041;51.812;4.622;2023-04-05T01:36:44;7.53;;;5.40;;
48241;SDS011;34041;51.812;4.622;2023-04-05T01:39:48;15.55;;;6.80;;
48241;SDS011;34041;51.812;4.622;2023-04-05T01:42:49;7.32;;;5.25;;
48241;SDS011;34041;51.812;4.622;2023-04-05T01:45:49;8.13;;;6.70;;
48241;SDS011;34041;51.812;4.622;2023-04-05T01:48:50;7.77;;;5.83;;
48241;SDS011;34041;51.812;4.622;2023-04-05T01:51:50;7.80;;;6.15;;
48241;SDS011;34041;51.812;4.622;2023-04-05T01:54:50;6.80;;;5.95;;
48241;SDS011;34041;51.812;4.622;2023-04-05T01:57:52;9.83;;;6.63;;
48241;SDS011;34041;51.812;4.622;2023-04-05T02:00:56;7.78;;;6.07;;
48241;SDS011;34041;51.812;4.622;2023-04-05T02:03:56;7.57;;;5.88;;
48241;SDS011;34041;51.812;4.622;2023-04-05T02:06:56;8.50;;;6.53;;
48241;SDS011;34041;51.812;4.622;2023-04-05T02:09:56;7.97;;;6.63;;
48241;SDS011;34041;51.812;4.622;2023-04-05T02:12:57;9.03;;;6.73;;
48241;SDS011;34041;51.812;4.622;2023-04-05T02:15:57;9.13;;;6.67;;
48241;SDS011;34041;51.812;4.622;2023-04-05T02:18:57;10.05;;;7.10;;
48241;SDS011;34041;51.812;4.622;2023-04-05T02:21:58;7.82;;;6.50;;
48241;SDS011;34041;51.812;4.622;2023-04-05T02:24:58;8.03;;;6.60;;
48241;SDS011;34041;51.812;4.622;2023-04-05T02:28:00;7.57;;;6.75;;
48241;SDS011;34041;51.812;4.622;2023-04-05T02:31:00;7.85;;;6.75;;
48241;SDS011;34041;51.812;4.622;2023-04-05T02:34:00;8.10;;;6.23;;
48241;SDS011;34041;51.812;4.622;2023-04-05T02:37:01;7.25;;;6.30;;
48241;SDS011;34041;51.812;4.622;2023-04-05T02:40:04;9.82;;;7.30;;
48241;SDS011;34041;51.812;4.622;2023-04-05T02:43:04;9.05;;;7.00;;
48241;SDS011;34041;51.812;4.622;2023-04-05T02:46:05;8.53;;;6.90;;
48241;SDS011;34041;51.812;4.622;2023-04-05T02:49:05;7.95;;;6.30;;
48241;SDS011;34041;51.812;4.622;2023-04-05T02:52:05;7.93;;;6.47;;
48241;SDS011;34041;51.812;4.622;2023-04-05T02:55:05;8.90;;;6.37;;
48241;SDS011;34041;51.812;4.622;2023-04-05T02:58:06;9.27;;;6.45;;
48241;SDS011;34041;51.812;4.622;2023-04-05T03:01:06;11.10;;;7.32;;
48241;SDS011;34041;51.812;4.622;2023-04-05T03:04:07;11.32;;;7.38;;
48241;SDS011;34041;51.812;4.622;2023-04-05T03:07:07;9.07;;;6.83;;
48241;SDS011;34041;51.812;4.622;2023-04-05T03:10:09;8.32;;;7.20;;
48241;SDS011;34041;51.812;4.622;2023-04-05T03:13:09;10.02;;;7.57;;
48241;SDS011;34041;51.812;4.622;2023-04-05T03:16:09;8.65;;;7.57;;
48241;SDS011;34041;51.812;4.622;2023-04-05T03:19:10;10.20;;;7.40;;
48241;SDS011;34041;51.812;4.622;2023-04-05T03:22:10;9.90;;;7.68;;
48241;SDS011;34041;51.812;4.622;2023-04-05T03:25:10;9.10;;;6.70;;
48241;SDS011;34041;51.812;4.622;2023-04-05T03:28:10;8.10;;;6.63;;
48241;SDS011;34041;51.812;4.622;2023-04-05T03:31:11;10.30;;;7.18;;
48241;SDS011;34041;51.812;4.622;2023-04-05T03:34:11;9.50;;;7.23;;
48241;SDS011;34041;51.812;4.622;2023-04-05T03:37:11;9.63;;;7.97;;
48241;SDS011;34041;51.812;4.622;2023-04-05T03:40:12;10.48;;;6.85;;
48241;SDS011;34041;51.812;4.622;2023-04-05T03:43:12;9.85;;;6.70;;
48241;SDS011;34041;51.812;4.622;2023-04-05T03:46:12;9.60;;;6.72;;
48241;SDS011;34041;51.812;4.622;2023-04-05T03:49:13;8.02;;;7.22;;
48241;SDS011;34041;51.812;4.622;2023-04-05T03:52:14;8.48;;;6.93;;
48241;SDS011;34041;51.812;4.622;2023-04-05T03:55:14;10.90;;;8.03;;
48241;SDS011;34041;51.812;4.622;2023-04-05T03:58:17;12.38;;;8.60;;
48241;SDS011;34041;51.812;4.622;2023-04-05T04:01:17;8.63;;;7.47;;
48241;SDS011;34041;51.812;4.622;2023-04-05T04:04:18;10.03;;;8.03;;
48241;SDS011;34041;51.812;4.622;2023-04-05T04:07:18;9.43;;;7.95;;
48241;SDS011;34041;51.812;4.622;2023-04-05T04:10:18;10.00;;;8.20;;
48241;SDS011;34041;51.812;4.622;2023-04-05T04:13:18;9.40;;;7.27;;
48241;SDS011;34041;51.812;4.622;2023-04-05T04:16:19;12.70;;;8.77;;
48241;SDS011;34041;51.812;4.622;2023-04-05T04:19:19;12.02;;;9.48;;
48241;SDS011;34041;51.812;4.622;2023-04-05T04:22:19;15.10;;;9.25;;
48241;SDS011;34041;51.812;4.622;2023-04-05T04:25:20;12.23;;;8.57;;
48241;SDS011;34041;51.812;4.622;2023-04-05T04:28:21;16.55;;;9.30;;
48241;SDS011;34041;51.812;4.622;2023-04-05T04:31:24;12.00;;;8.60;;
48241;SDS011;34041;51.812;4.622;2023-04-05T04:34:24;13.25;;;9.95;;
48241;SDS011;34041;51.812;4.622;2023-04-05T04:37:24;12.97;;;8.93;;
48241;SDS011;34041;51.812;4.622;2023-04-05T04:40:36;13.50;;;9.15;;
48241;SDS011;34041;51.812;4.622;2023-04-05T04:43:40;14.13;;;9.65;;
48241;SDS011;34041;51.812;4.622;2023-04-05T04:46:43;13.02;;;8.60;;
48241;SDS011;34041;51.812;4.622;2023-04-05T04:49:43;11.43;;;9.43;;
48241;SDS011;34041;51.812;4.622;2023-04-05T04:52:44;13.27;;;8.83;;
48241;SDS011;34041;51.812;4.622;2023-04-05T04:55:44;14.13;;;9.02;;
48241;SDS011;34041;51.812;4.622;2023-04-05T04:58:44;13.05;;;10.00;;
48241;SDS011;34041;51.812;4.622;2023-04-05T05:01:45;11.00;;;8.93;;
48241;SDS011;34041;51.812;4.622;2023-04-05T05:04:45;11.90;;;8.87;;
48241;SDS011;34041;51.812;4.622;2023-04-05T05:07:45;10.65;;;8.35;;
48241;SDS011;34041;51.812;4.622;2023-04-05T05:10:49;11.63;;;9.50;;
48241;SDS011;34041;51.812;4.622;2023-04-05T05:13:49;12.30;;;9.38;;
48241;SDS011;34041;51.812;4.622;2023-04-05T05:16:50;15.27;;;10.03;;
48241;SDS011;34041;51.812;4.622;2023-04-05T05:19:50;11.70;;;8.77;;
48241;SDS011;34041;51.812;4.622;2023-04-05T05:22:50;14.27;;;9.40;;
48241;SDS011;34041;51.812;4.622;2023-04-05T05:25:56;11.90;;;9.98;;
48241;SDS011;34041;51.812;4.622;2023-04-05T05:28:59;11.45;;;8.60;;
48241;SDS011;34041;51.812;4.622;2023-04-05T05:31:59;11.00;;;8.75;;
48241;SDS011;34041;51.812;4.622;2023-04-05T05:34:59;10.70;;;8.20;;
48241;SDS011;34041;51.812;4.622;2023-04-05T05:38:00;13.17;;;9.83;;
48241;SDS011;34041;51.812;4.622;2023-04-05T05:41:01;11.95;;;8.80;;
48241;SDS011;34041;51.812;4.622;2023-04-05T05:44:02;11.35;;;8.73;;
48241;SDS011;34041;51.812;4.622;2023-04-05T05:47:02;10.00;;;8.47;;
48241;SDS011;34041;51.812;4.622;2023-04-05T05:50:03;13.38;;;8.68;;
48241;SDS011;34041;51.812;4.622;2023-04-05T05:53:04;12.07;;;8.30;;
48241;SDS011;34041;51.812;4.622;2023-04-05T05:56:05;9.18;;;8.27;;
48241;SDS011;34041;51.812;4.622;2023-04-05T05:59:05;10.18;;;8.20;;
48241;SDS011;34041;51.812;4.622;2023-04-05T06:02:06;9.05;;;7.68;;
48241;SDS011;34041;51.812;4.622;2023-04-05T06:05:06;10.43;;;8.70;;
48241;SDS011;34041;51.812;4.622;2023-04-05T06:08:07;9.68;;;8.68;;
48241;SDS011;34041;51.812;4.622;2023-04-05T06:11:15;11.57;;;8.75;;
48241;SDS011;34041;51.812;4.622;2023-04-05T06:14:15;10.45;;;8.30;;
48241;SDS011;34041;51.812;4.622;2023-04-05T06:17:16;10.95;;;8.38;;
48241;SDS011;34041;51.812;4.622;2023-04-05T06:20:16;10.57;;;9.47;;
48241;SDS011;34041;51.812;4.622;2023-04-05T06:23:16;10.55;;;9.13;;
48241;SDS011;34041;51.812;4.622;2023-04-05T06:26:20;12.47;;;9.53;;
48241;SDS011;34041;51.812;4.622;2023-04-05T06:29:22;11.18;;;9.50;;
48241;SDS011;34041;51.812;4.622;2023-04-05T06:32:22;9.57;;;8.13;;
48241;SDS011;34041;51.812;4.622;2023-04-05T06:35:22;9.53;;;8.43;;
48241;SDS011;34041;51.812;4.622;2023-04-05T06:38:23;10.55;;;8.57;;
48241;SDS011;34041;51.812;4.622;2023-04-05T06:41:23;12.23;;;8.80;;
48241;SDS011;34041;51.812;4.622;2023-04-05T06:44:23;9.65;;;8.15;;
48241;SDS011;34041;51.812;4.622;2023-04-05T06:47:24;9.17;;;7.73;;
48241;SDS011;34041;51.812;4.622;2023-04-05T06:50:24;11.20;;;9.30;;
48241;SDS011;34041;51.812;4.622;2023-04-05T06:53:24;9.25;;;8.20;;
48241;SDS011;34041;51.812;4.622;2023-04-05T06:56:26;9.68;;;7.80;;
48241;SDS011;34041;51.812;4.622;2023-04-05T06:59:27;9.82;;;7.82;;
48241;SDS011;34041;51.812;4.622;2023-04-05T07:02:28;8.50;;;7.60;;
48241;SDS011;34041;51.812;4.622;2023-04-05T07:05:28;10.57;;;8.33;;
48241;SDS011;34041;51.812;4.622;2023-04-05T07:08:29;10.27;;;7.60;;
48241;SDS011;34041;51.812;4.622;2023-04-05T07:11:30;10.23;;;8.02;;
48241;SDS011;34041;51.812;4.622;2023-04-05T07:14:32;10.57;;;6.93;;
48241;SDS011;34041;51.812;4.622;2023-04-05T07:17:32;8.63;;;6.68;;
48241;SDS011;34041;51.812;4.622;2023-04-05T07:20:33;8.03;;;7.13;;
48241;SDS011;34041;51.812;4.622;2023-04-05T07:23:33;8.23;;;6.73;;
48241;SDS011;34041;51.812;4.622;2023-04-05T07:26:33;8.27;;;7.23;;
48241;SDS011;34041;51.812;4.622;2023-04-05T07:29:34;9.60;;;7.32;;
48241;SDS011;34041;51.812;4.622;2023-04-05T07:32:39;10.15;;;6.95;;
48241;SDS011;34041;51.812;4.622;2023-04-05T07:35:39;8.40;;;6.40;;
48241;SDS011;34041;51.812;4.622;2023-04-05T07:38:39;8.03;;;6.80;;
48241;SDS011;34041;51.812;4.622;2023-04-05T07:41:40;6.80;;;6.03;;
48241;SDS011;34041;51.812;4.622;2023-04-05T07:44:41;9.83;;;6.60;;
48241;SDS011;34041;51.812;4.622;2023-04-05T07:47:41;7.17;;;6.47;;
48241;SDS011;34041;51.812;4.622;2023-04-05T07:50:41;8.67;;;6.00;;
48241;SDS011;34041;51.812;4.622;2023-04-05T07:53:46;9.05;;;7.22;;
48241;SDS011;34041;51.812;4.622;2023-04-05T07:56:48;8.35;;;6.78;;
48241;SDS011;34041;51.812;4.622;2023-04-05T07:59:49;8.65;;;6.82;;
48241;SDS011;34041;51.812;4.622;2023-04-05T08:02:52;8.25;;;5.82;;
48241;SDS011;34041;51.812;4.622;2023-04-05T08:05:52;10.33;;;6.77;;
48241;SDS011;34041;51.812;4.622;2023-04-05T08:08:52;8.68;;;6.18;;
48241;SDS011;34041;51.812;4.622;2023-04-05T08:11:52;9.70;;;6.57;;
48241;SDS011;34041;51.812;4.622;2023-04-05T08:14:53;9.53;;;7.57;;
48241;SDS011;34041;51.812;4.622;2023-04-05T08:17:53;7.45;;;6.03;;
48241;SDS011;34041;51.812;4.622;2023-04-05T08:20:53;6.30;;;4.93;;
48241;SDS011;34041;51.812;4.622;2023-04-05T08:23:54;10.32;;;5.13;;
48241;SDS011;34041;51.812;4.622;2023-04-05T08:26:54;7.25;;;6.22;;
48241;SDS011;34041;51.812;4.622;2023-04-05T08:29:55;9.65;;;6.50;;
48241;SDS011;34041;51.812;4.622;2023-04-05T08:32:55;6.30;;;5.63;;
48241;SDS011;34041;51.812;4.622;2023-04-05T08:35:56;5.83;;;5.20;;
48241;SDS011;34041;51.812;4.622;2023-04-05T08:38:56;7.82;;;5.40;;
48241;SDS011;34041;51.812;4.622;2023-04-05T08:45:02;8.15;;;5.20;;
48241;SDS011;34041;51.812;4.622;2023-04-05T08:48:02;6.78;;;4.78;;
48241;SDS011;34041;51.812;4.622;2023-04-05T08:51:03;7.70;;;4.88;;
48241;SDS011;34041;51.812;4.622;2023-04-05T08:54:03;7.57;;;5.75;;
48241;SDS011;34041;51.812;4.622;2023-04-05T08:57:04;10.10;;;5.57;;
48241;SDS011;34041;51.812;4.622;2023-04-05T09:00:07;7.95;;;4.88;;
48241;SDS011;34041;51.812;4.622;2023-04-05T09:03:10;6.85;;;4.80;;
48241;SDS011;34041;51.812;4.622;2023-04-05T09:06:11;6.40;;;4.77;;
48241;SDS011;34041;51.812;4.622;2023-04-05T09:09:12;6.70;;;5.57;;
48241;SDS011;34041;51.812;4.622;2023-04-05T09:12:13;5.57;;;4.30;;
48241;SDS011;34041;51.812;4.622;2023-04-05T09:15:13;5.85;;;4.82;;
48241;SDS011;34041;51.812;4.622;2023-04-05T09:18:14;7.85;;;4.80;;
48241;SDS011;34041;51.812;4.622;2023-04-05T09:21:14;9.10;;;4.55;;
48241;SDS011;34041;51.812;4.622;2023-04-05T09:24:28;6.38;;;4.53;;
48241;SDS011;34041;51.812;4.622;2023-04-05T09:27:28;5.43;;;4.53;;
48241;SDS011;34041;51.812;4.622;2023-04-05T09:30:29;7.53;;;4.90;;
48241;SDS011;34041;51.812;4.622;2023-04-05T09:33:29;5.85;;;4.35;;
48241;SDS011;34041;51.812;4.622;2023-04-05T09:36:33;6.30;;;4.82;;
48241;SDS011;34041;51.812;4.622;2023-04-05T09:39:34;8.05;;;5.53;;
48241;SDS011;34041;51.812;4.622;2023-04-05T09:42:44;5.28;;;4.40;;
48241;SDS011;34041;51.812;4.622;2023-04-05T09:45:47;6.97;;;4.70;;
48241;SDS011;34041;51.812;4.622;2023-04-05T09:48:48;7.53;;;4.87;;
48241;SDS011;34041;51.812;4.622;2023-04-05T09:51:48;6.10;;;5.05;;
48241;SDS011;34041;51.812;4.622;2023-04-05T09:54:50;6.32;;;4.53;;
48241;SDS011;34041;51.812;4.622;2023-04-05T09:57:50;6.85;;;5.07;;
48241;SDS011;34041;51.812;4.622;2023-04-05T10:00:51;7.90;;;5.20;;
48241;SDS011;34041;51.812;4.622;2023-04-05T10:03:54;8.40;;;5.30;;
48241;SDS011;34041;51.812;4.622;2023-04-05T10:06:56;7.38;;;5.53;;
48241;SDS011;34041;51.812;4.622;2023-04-05T10:09:56;7.38;;;6.25;;
48241;SDS011;34041;51.812;4.622;2023-04-05T10:12:56;8.77;;;5.37;;
48241;SDS011;34041;51.812;4.622;2023-04-05T10:15:57;6.72;;;5.15;;
48241;SDS011;34041;51.812;4.622;2023-04-05T10:18:59;6.28;;;5.57;;
48241;SDS011;34041;51.812;4.622;2023-04-05T10:22:02;9.70;;;5.85;;
48241;SDS011;34041;51.812;4.622;2023-04-05T10:25:17;7.25;;;5.10;;
48241;SDS011;34041;51.812;4.622;2023-04-05T10:31:39;7.28;;;5.30;;
48241;SDS011;34041;51.812;4.622;2023-04-05T10:34:47;7.47;;;5.53;;
48241;SDS011;34041;51.812;4.622;2023-04-05T10:41:11;5.68;;;4.47;;
48241;SDS011;34041;51.812;4.622;2023-04-05T10:44:11;6.93;;;5.03;;
48241;SDS011;34041;51.812;4.622;2023-04-05T10:47:13;6.75;;;4.75;;
48241;SDS011;34041;51.812;4.622;2023-04-05T10:50:21;7.10;;;5.70;;
48241;SDS011;34041;51.812;4.622;2023-04-05T10:53:21;7.32;;;5.97;;
48241;SDS011;34041;51.812;4.622;2023-04-05T10:56:21;6.22;;;5.05;;
48241;SDS011;34041;51.812;4.622;2023-04-05T10:59:22;7.15;;;5.40;;
48241;SDS011;34041;51.812;4.622;2023-04-05T11:02:23;8.88;;;5.60;;
48241;SDS011;34041;51.812;4.622;2023-04-05T11:05:30;8.85;;;6.10;;
48241;SDS011;34041;51.812;4.622;2023-04-05T11:08:31;8.05;;;5.90;;
48241;SDS011;34041;51.812;4.622;2023-04-05T11:11:37;6.63;;;5.20;;
48241;SDS011;34041;51.812;4.622;2023-04-05T11:14:37;9.30;;;6.15;;
48241;SDS011;34041;51.812;4.622;2023-04-05T11:17:38;7.20;;;6.32;;
48241;SDS011;34041;51.812;4.622;2023-04-05T11:20:39;6.47;;;5.57;;
48241;SDS011;34041;51.812;4.622;2023-04-05T11:26:59;6.82;;;6.13;;
48241;SDS011;34041;51.812;4.622;2023-04-05T11:30:00;8.55;;;5.57;;
48241;SDS011;34041;51.812;4.622;2023-04-05T11:33:02;8.38;;;6.03;;
48241;SDS011;34041;51.812;4.622;2023-04-05T11:36:06;10.88;;;5.95;;
48241;SDS011;34041;51.812;4.622;2023-04-05T11:42:22;9.70;;;5.95;;
48241;SDS011;34041;51.812;4.622;2023-04-05T11:45:23;9.23;;;6.35;;
48241;SDS011;34041;51.812;4.622;2023-04-05T11:48:23;8.48;;;6.10;;
48241;SDS011;34041;51.812;4.622;2023-04-05T11:51:23;9.38;;;6.03;;
48241;SDS011;34041;51.812;4.622;2023-04-05T11:57:28;8.82;;;6.75;;
48241;SDS011;34041;51.812;4.622;2023-04-05T12:00:29;7.97;;;5.75;;
48241;SDS011;34041;51.812;4.622;2023-04-05T12:03:30;7.80;;;5.83;;
48241;SDS011;34041;51.812;4.622;2023-04-05T12:06:30;8.73;;;7.07;;
48241;SDS011;34041;51.812;4.622;2023-04-05T12:09:30;8.47;;;6.70;;
48241;SDS011;34041;51.812;4.622;2023-04-05T12:12:40;8.27;;;6.40;;
48241;SDS011;34041;51.812;4.622;2023-04-05T12:18:54;8.30;;;6.15;;
48241;SDS011;34041;51.812;4.622;2023-04-05T12:21:55;6.50;;;5.80;;
48241;SDS011;34041;51.812;4.622;2023-04-05T12:24:55;7.53;;;6.50;;
48241;SDS011;34041;51.812;4.622;2023-04-05T12:27:55;7.82;;;6.72;;
48241;SDS011;34041;51.812;4.622;2023-04-05T12:30:56;8.30;;;6.47;;
48241;SDS011;34041;51.812;4.622;2023-04-05T12:33:57;9.48;;;6.38;;
48241;SDS011;34041;51.812;4.622;2023-04-05T12:36:58;9.15;;;6.93;;
48241;SDS011;34041;51.812;4.622;2023-04-05T12:40:03;7.70;;;6.38;;
48241;SDS011;34041;51.812;4.622;2023-04-05T12:43:05;9.10;;;6.80;;
48241;SDS011;34041;51.812;4.622;2023-04-05T12:46:08;8.15;;;7.10;;
48241;SDS011;34041;51.812;4.622;2023-04-05T12:49:11;8.88;;;6.75;;
48241;SDS011;34041;51.812;4.622;2023-04-05T12:52:12;12.38;;;7.68;;
48241;SDS011;34041;51.812;4.622;2023-04-05T12:55:18;9.68;;;7.82;;
48241;SDS011;34041;51.812;4.622;2023-04-05T12:58:20;8.07;;;6.75;;
48241;SDS011;34041;51.812;4.622;2023-04-05T13:01:21;11.43;;;8.90;;
48241;SDS011;34041;51.812;4.622;2023-04-05T13:04:21;9.30;;;7.22;;
48241;SDS011;34041;51.812;4.622;2023-04-05T13:07:22;8.77;;;7.57;;
48241;SDS011;34041;51.812;4.622;2023-04-05T13:10:23;10.30;;;7.30;;
48241;SDS011;34041;51.812;4.622;2023-04-05T13:13:23;10.63;;;7.55;;
48241;SDS011;34041;51.812;4.622;2023-04-05T13:16:24;10.77;;;7.82;;
48241;SDS011;34041;51.812;4.622;2023-04-05T13:19:24;11.32;;;7.78;;
48241;SDS011;34041;51.812;4.622;2023-04-05T13:22:24;9.80;;;8.27;;
48241;SDS011;34041;51.812;4.622;2023-04-05T13:25:25;9.93;;;8.35;;
48241;SDS011;34041;51.812;4.622;2023-04-05T13:28:25;11.50;;;9.15;;
48241;SDS011;34041;51.812;4.622;2023-04-05T13:31:26;11.10;;;8.63;;
48241;SDS011;34041;51.812;4.622;2023-04-05T13:34:26;10.60;;;9.00;;
48241;SDS011;34041;51.812;4.622;2023-04-05T13:37:26;11.67;;;8.73;;
48241;SDS011;34041;51.812;4.622;2023-04-05T13:40:27;9.77;;;8.70;;
48241;SDS011;34041;51.812;4.622;2023-04-05T13:43:27;9.40;;;8.17;;
48241;SDS011;34041;51.812;4.622;2023-04-05T13:46:30;11.23;;;8.85;;
48241;SDS011;34041;51.812;4.622;2023-04-05T13:49:30;10.50;;;9.18;;
48241;SDS011;34041;51.812;4.622;2023-04-05T13:52:30;10.43;;;8.35;;
48241;SDS011;34041;51.812;4.622;2023-04-05T13:55:30;10.80;;;8.40;;
48241;SDS011;34041;51.812;4.622;2023-04-05T13:58:31;10.67;;;9.00;;
48241;SDS011;34041;51.812;4.622;2023-04-05T14:01:34;12.17;;;9.40;;
48241;SDS011;34041;51.812;4.622;2023-04-05T14:04:34;11.15;;;8.57;;
48241;SDS011;34041;51.812;4.622;2023-04-05T14:07:35;11.23;;;8.25;;
48241;SDS011;34041;51.812;4.622;2023-04-05T14:10:35;10.88;;;9.07;;
48241;SDS011;34041;51.812;4.622;2023-04-05T14:13:35;11.85;;;8.13;;
48241;SDS011;34041;51.812;4.622;2023-04-05T14:16:36;13.38;;;9.13;;
48241;SDS011;34041;51.812;4.622;2023-04-05T14:19:37;11.45;;;9.07;;
48241;SDS011;34041;51.812;4.622;2023-04-05T14:22:37;10.73;;;9.05;;
48241;SDS011;34041;51.812;4.622;2023-04-05T14:25:38;12.43;;;9.63;;
48241;SDS011;34041;51.812;4.622;2023-04-05T14:28:38;12.52;;;9.35;;
48241;SDS011;34041;51.812;4.622;2023-04-05T14:31:38;12.32;;;9.60;;
48241;SDS011;34041;51.812;4.622;2023-04-05T14:34:38;11.70;;;9.63;;
48241;SDS011;34041;51.812;4.622;2023-04-05T14:37:39;11.50;;;9.63;;
48241;SDS011;34041;51.812;4.622;2023-04-05T14:40:39;11.20;;;9.73;;
48241;SDS011;34041;51.812;4.622;2023-04-05T14:43:40;12.50;;;11.20;;
48241;SDS011;34041;51.812;4.622;2023-04-05T14:46:40;12.70;;;10.95;;
48241;SDS011;34041;51.812;4.622;2023-04-05T14:49:41;16.33;;;11.27;;
48241;SDS011;34041;51.812;4.622;2023-04-05T14:52:41;12.23;;;10.20;;
48241;SDS011;34041;51.812;4.622;2023-04-05T14:55:41;15.00;;;10.85;;
48241;SDS011;34041;51.812;4.622;2023-04-05T14:58:42;13.20;;;10.83;;
48241;SDS011;34041;51.812;4.622;2023-04-05T15:01:42;14.45;;;10.80;;
48241;SDS011;34041;51.812;4.622;2023-04-05T15:04:44;12.85;;;10.25;;
48241;SDS011;34041;51.812;4.622;2023-04-05T15:07:44;11.57;;;10.37;;
48241;SDS011;34041;51.812;4.622;2023-04-05T15:10:44;11.75;;;10.30;;
48241;SDS011;34041;51.812;4.622;2023-04-05T15:13:45;12.38;;;10.82;;
48241;SDS011;34041;51.812;4.622;2023-04-05T15:16:45;11.50;;;9.53;;
48241;SDS011;34041;51.812;4.622;2023-04-05T15:19:45;12.15;;;9.55;;
48241;SDS011;34041;51.812;4.622;2023-04-05T15:22:46;12.73;;;10.10;;
48241;SDS011;34041;51.812;4.622;2023-04-05T15:25:46;11.43;;;9.73;;
48241;SDS011;34041;51.812;4.622;2023-04-05T15:28:46;13.52;;;9.90;;
48241;SDS011;34041;51.812;4.622;2023-04-05T15:31:46;12.80;;;10.60;;
48241;SDS011;34041;51.812;4.622;2023-04-05T15:34:47;11.00;;;8.70;;
48241;SDS011;34041;51.812;4.622;2023-04-05T15:37:47;10.82;;;9.18;;
48241;SDS011;34041;51.812;4.622;2023-04-05T15:40:47;12.23;;;9.00;;
48241;SDS011;34041;51.812;4.622;2023-04-05T15:43:51;9.57;;;8.57;;
48241;SDS011;34041;51.812;4.622;2023-04-05T15:46:51;13.32;;;9.80;;
48241;SDS011;34041;51.812;4.622;2023-04-05T15:49:52;11.10;;;9.37;;
48241;SDS011;34041;51.812;4.622;2023-04-05T15:52:52;10.82;;;8.93;;
48241;SDS011;34041;51.812;4.622;2023-04-05T15:55:52;12.90;;;9.05;;
48241;SDS011;34041;51.812;4.622;2023-04-05T15:58:52;12.93;;;9.17;;
48241;SDS011;34041;51.812;4.622;2023-04-05T16:01:53;11.55;;;8.93;;
48241;SDS011;34041;51.812;4.622;2023-04-05T16:04:53;11.48;;;9.55;;
48241;SDS011;34041;51.812;4.622;2023-04-05T16:07:53;12.52;;;9.60;;
48241;SDS011;34041;51.812;4.622;2023-04-05T16:10:54;10.88;;;9.15;;
48241;SDS011;34041;51.812;4.622;2023-04-05T16:13:55;13.55;;;9.90;;
48241;SDS011;34041;51.812;4.622;2023-04-05T16:16:55;13.10;;;10.32;;
48241;SDS011;34041;51.812;4.622;2023-04-05T16:19:56;12.18;;;10.25;;
48241;SDS011;34041;51.812;4.622;2023-04-05T16:22:56;12.70;;;9.90;;
48241;SDS011;34041;51.812;4.622;2023-04-05T16:25:56;12.63;;;9.63;;
48241;SDS011;34041;51.812;4.622;2023-04-05T16:28:57;12.73;;;9.75;;
48241;SDS011;34041;51.812;4.622;2023-04-05T16:31:57;12.65;;;10.05;;
48241;SDS011;34041;51.812;4.622;2023-04-05T16:34:58;12.30;;;9.82;;
48241;SDS011;34041;51.812;4.622;2023-04-05T16:37:58;10.80;;;9.63;;
48241;SDS011;34041;51.812;4.622;2023-04-05T16:40:59;13.25;;;10.70;;
48241;SDS011;34041;51.812;4.622;2023-04-05T16:43:59;15.07;;;9.35;;
48241;SDS011;34041;51.812;4.622;2023-04-05T16:46:59;10.50;;;9.40;;
48241;SDS011;34041;51.812;4.622;2023-04-05T16:49:59;12.65;;;9.93;;
48241;SDS011;34041;51.812;4.622;2023-04-05T16:53:00;11.57;;;10.05;;
48241;SDS011;34041;51.812;4.622;2023-04-05T16:56:00;12.27;;;9.70;;
48241;SDS011;34041;51.812;4.622;2023-04-05T16:59:00;15.82;;;10.70;;
48241;SDS011;34041;51.812;4.622;2023-04-05T17:02:01;12.63;;;9.07;;
48241;SDS011;34041;51.812;4.622;2023-04-05T17:05:01;11.27;;;8.70;;
48241;SDS011;34041;51.812;4.622;2023-04-05T17:08:02;15.18;;;11.35;;
48241;SDS011;34041;51.812;4.622;2023-04-05T17:11:04;12.80;;;9.73;;
48241;SDS011;34041;51.812;4.622;2023-04-05T17:14:04;11.52;;;9.40;;
48241;SDS011;34041;51.812;4.622;2023-04-05T17:17:05;12.70;;;10.55;;
48241;SDS011;34041;51.812;4.622;2023-04-05T17:20:06;11.25;;;9.43;;
48241;SDS011;34041;51.812;4.622;2023-04-05T17:23:06;11.95;;;9.77;;
48241;SDS011;34041;51.812;4.622;2023-04-05T17:26:07;11.80;;;9.88;;
48241;SDS011;34041;51.812;4.622;2023-04-05T17:29:07;11.85;;;10.60;;
48241;SDS011;34041;51.812;4.622;2023-04-05T17:32:07;12.77;;;10.82;;
48241;SDS011;34041;51.812;4.622;2023-04-05T17:35:08;11.03;;;9.63;;
48241;SDS011;34041;51.812;4.622;2023-04-05T17:38:08;13.43;;;10.02;;
48241;SDS011;34041;51.812;4.622;2023-04-05T17:41:09;13.55;;;10.80;;
48241;SDS011;34041;51.812;4.622;2023-04-05T17:44:09;13.15;;;9.20;;
48241;SDS011;34041;51.812;4.622;2023-04-05T17:47:09;13.57;;;10.55;;
48241;SDS011;34041;51.812;4.622;2023-04-05T17:50:10;13.68;;;10.75;;
48241;SDS011;34041;51.812;4.622;2023-04-05T17:53:10;14.55;;;11.07;;
48241;SDS011;34041;51.812;4.622;2023-04-05T17:56:11;10.98;;;9.27;;
48241;SDS011;34041;51.812;4.622;2023-04-05T17:59:11;12.68;;;10.45;;
48241;SDS011;34041;51.812;4.622;2023-04-05T18:02:11;13.37;;;10.73;;
48241;SDS011;34041;51.812;4.622;2023-04-05T18:05:12;13.57;;;11.07;;
48241;SDS011;34041;51.812;4.622;2023-04-05T18:08:12;12.45;;;10.60;;
48241;SDS011;34041;51.812;4.622;2023-04-05T18:11:12;11.50;;;10.20;;
48241;SDS011;34041;51.812;4.622;2023-04-05T18:14:12;10.55;;;9.18;;
48241;SDS011;34041;51.812;4.622;2023-04-05T18:17:13;13.10;;;10.87;;
48241;SDS011;34041;51.812;4.622;2023-04-05T18:20:13;14.95;;;10.48;;
48241;SDS011;34041;51.812;4.622;2023-04-05T18:23:13;14.52;;;10.10;;
48241;SDS011;34041;51.812;4.622;2023-04-05T18:26:16;14.02;;;11.18;;
48241;SDS011;34041;51.812;4.622;2023-04-05T18:29:17;12.80;;;10.88;;
48241;SDS011;34041;51.812;4.622;2023-04-05T18:32:17;14.93;;;11.35;;